sensor_id;sensor_type;location;lat;lon;timestamp;P1;durP1;ratioP1;P2;durP2;ratioP2
15104;SDS011;7653;48.994;9.212;2023-02-11T00:03:58;32.30;;;17.80;;
15104;SDS011;7653;48.994;9.212;2023-02-11T00:06:27;32.37;;;19.23;;
15104;SDS011;7653;48.994;9.212;2023-02-11T00:08:53;38.67;;;19.43;;
15104;SDS011;7653;48.994;9.212;2023-02-11T00:11:29;32.37;;;18.43;;
15104;SDS011;7653;48.994;9.212;2023-02-11T00:13:55;35.10;;;17.27;;
15104;SDS011;7653;48.994;9.212;2023-02-11T00:16:26;34.07;;;18.77;;
15104;SDS011;7653;48.994;9.212;2023-02-11T00:18:52;35.00;;;18.73;;
15104;SDS011;7653;48.994;9.212;2023-02-11T00:21:22;36.73;;;19.30;;
15104;SDS011;7653;48.994;9.212;2023-02-11T00:23:49;35.70;;;19.37;;
15104;SDS011;7653;48.994;9.212;2023-02-11T00:28:44;30.50;;;18.10;;
15104;SDS011;7653;48.994;9.212;2023-02-11T00:31:11;29.33;;;17.90;;
15104;SDS011;7653;48.994;9.212;2023-02-11T00:33:38;38.10;;;18.87;;
15104;SDS011;7653;48.994;9.212;2023-02-11T00:36:04;32.83;;;17.67;;
15104;SDS011;7653;48.994;9.212;2023-02-11T00:38:44;30.13;;;17.57;;
15104;SDS011;7653;48.994;9.212;2023-02-11T00:41:10;34.37;;;17.80;;
15104;SDS011;7653;48.994;9.212;2023-02-11T00:43:37;37.10;;;18.20;;
15104;SDS011;7653;48.994;9.212;2023-02-11T00:46:03;32.23;;;19.03;;
15104;SDS011;7653;48.994;9.212;2023-02-11T00:48:29;35.27;;;19.37;;
15104;SDS011;7653;48.994;9.212;2023-02-11T00:50:55;29.37;;;17.70;;
15104;SDS011;7653;48.994;9.212;2023-02-11T00:53:21;32.23;;;18.43;;
15104;SDS011;7653;48.994;9.212;2023-02-11T00:55:47;36.50;;;20.13;;
15104;SDS011;7653;48.994;9.212;2023-02-11T00:58:12;34.70;;;18.80;;
15104;SDS011;7653;48.994;9.212;2023-02-11T01:00:38;36.23;;;19.57;;
15104;SDS011;7653;48.994;9.212;2023-02-11T01:03:04;33.77;;;19.43;;
15104;SDS011;7653;48.994;9.212;2023-02-11T01:05:30;37.63;;;19.47;;
15104;SDS011;7653;48.994;9.212;2023-02-11T01:07:55;34.67;;;19.50;;
15104;SDS011;7653;48.994;9.212;2023-02-11T01:10:21;32.97;;;18.47;;
15104;SDS011;7653;48.994;9.212;2023-02-11T01:12:47;32.77;;;19.17;;
15104;SDS011;7653;48.994;9.212;2023-02-11T01:15:13;38.53;;;20.27;;
15104;SDS011;7653;48.994;9.212;2023-02-11T01:17:40;35.30;;;19.40;;
15104;SDS011;7653;48.994;9.212;2023-02-11T01:20:07;34.17;;;18.63;;
15104;SDS011;7653;48.994;9.212;2023-02-11T01:22:37;34.13;;;19.60;;
15104;SDS011;7653;48.994;9.212;2023-02-11T01:25:04;31.87;;;19.37;;
15104;SDS011;7653;48.994;9.212;2023-02-11T01:27:30;38.27;;;20.10;;
15104;SDS011;7653;48.994;9.212;2023-02-11T01:29:56;33.33;;;19.17;;
15104;SDS011;7653;48.994;9.212;2023-02-11T01:32:22;33.37;;;18.97;;
15104;SDS011;7653;48.994;9.212;2023-02-11T01:34:47;35.33;;;18.67;;
15104;SDS011;7653;48.994;9.212;2023-02-11T01:37:13;32.63;;;18.87;;
15104;SDS011;7653;48.994;9.212;2023-02-11T01:39:38;35.50;;;19.73;;
15104;SDS011;7653;48.994;9.212;2023-02-11T01:42:04;34.97;;;19.70;;
15104;SDS011;7653;48.994;9.212;2023-02-11T01:44:35;35.10;;;18.97;;
15104;SDS011;7653;48.994;9.212;2023-02-11T01:47:02;30.33;;;18.20;;
15104;SDS011;7653;48.994;9.212;2023-02-11T01:50:04;35.33;;;18.87;;
15104;SDS011;7653;48.994;9.212;2023-02-11T01:52:30;34.67;;;17.90;;
15104;SDS011;7653;48.994;9.212;2023-02-11T01:55:04;37.00;;;20.13;;
15104;SDS011;7653;48.994;9.212;2023-02-11T01:57:52;34.97;;;18.33;;
15104;SDS011;7653;48.994;9.212;2023-02-11T02:00:22;33.93;;;18.13;;
15104;SDS011;7653;48.994;9.212;2023-02-11T02:02:57;31.63;;;18.50;;
15104;SDS011;7653;48.994;9.212;2023-02-11T02:05:40;36.17;;;20.27;;
15104;SDS011;7653;48.994;9.212;2023-02-11T02:08:43;27.97;;;17.13;;
15104;SDS011;7653;48.994;9.212;2023-02-11T02:11:11;33.37;;;17.43;;
15104;SDS011;7653;48.994;9.212;2023-02-11T02:13:37;32.27;;;18.20;;
15104;SDS011;7653;48.994;9.212;2023-02-11T02:16:04;35.17;;;18.83;;
15104;SDS011;7653;48.994;9.212;2023-02-11T02:43:22;32.83;;;18.20;;
15104;SDS011;7653;48.994;9.212;2023-02-11T02:45:50;31.17;;;19.07;;
15104;SDS011;7653;48.994;9.212;2023-02-11T03:08:39;34.77;;;18.43;;
15104;SDS011;7653;48.994;9.212;2023-02-11T03:11:18;37.13;;;19.00;;
15104;SDS011;7653;48.994;9.212;2023-02-11T03:13:45;32.17;;;18.83;;
15104;SDS011;7653;48.994;9.212;2023-02-11T03:16:15;36.93;;;19.33;;
15104;SDS011;7653;48.994;9.212;2023-02-11T03:18:46;35.63;;;19.80;;
15104;SDS011;7653;48.994;9.212;2023-02-11T03:21:16;32.60;;;19.67;;
15104;SDS011;7653;48.994;9.212;2023-02-11T03:31:29;35.10;;;18.57;;
15104;SDS011;7653;48.994;9.212;2023-02-11T03:33:58;36.30;;;20.03;;
15104;SDS011;7653;48.994;9.212;2023-02-11T03:39:38;34.63;;;18.07;;
15104;SDS011;7653;48.994;9.212;2023-02-11T03:42:08;34.93;;;19.43;;
15104;SDS011;7653;48.994;9.212;2023-02-11T03:44:39;29.87;;;18.03;;
15104;SDS011;7653;48.994;9.212;2023-02-11T03:47:09;37.50;;;19.67;;
15104;SDS011;7653;48.994;9.212;2023-02-11T03:49:38;39.33;;;20.17;;
15104;SDS011;7653;48.994;9.212;2023-02-11T03:52:05;39.17;;;19.83;;
15104;SDS011;7653;48.994;9.212;2023-02-11T03:54:32;36.87;;;20.73;;
15104;SDS011;7653;48.994;9.212;2023-02-11T03:56:59;34.83;;;19.30;;
15104;SDS011;7653;48.994;9.212;2023-02-11T03:59:26;36.93;;;19.10;;
15104;SDS011;7653;48.994;9.212;2023-02-11T04:01:53;37.30;;;18.67;;
15104;SDS011;7653;48.994;9.212;2023-02-11T04:04:19;31.03;;;17.97;;
15104;SDS011;7653;48.994;9.212;2023-02-11T04:06:44;32.73;;;19.33;;
15104;SDS011;7653;48.994;9.212;2023-02-11T04:09:10;31.10;;;18.30;;
15104;SDS011;7653;48.994;9.212;2023-02-11T04:11:38;34.77;;;19.20;;
15104;SDS011;7653;48.994;9.212;2023-02-11T04:14:04;34.73;;;19.33;;
15104;SDS011;7653;48.994;9.212;2023-02-11T04:16:30;33.70;;;19.43;;
15104;SDS011;7653;48.994;9.212;2023-02-11T04:18:56;31.30;;;17.73;;
15104;SDS011;7653;48.994;9.212;2023-02-11T04:21:21;31.93;;;19.17;;
15104;SDS011;7653;48.994;9.212;2023-02-11T04:23:47;35.53;;;19.87;;
15104;SDS011;7653;48.994;9.212;2023-02-11T04:26:13;37.30;;;18.80;;
15104;SDS011;7653;48.994;9.212;2023-02-11T04:28:39;37.43;;;20.33;;
15104;SDS011;7653;48.994;9.212;2023-02-11T04:31:04;32.33;;;19.20;;
15104;SDS011;7653;48.994;9.212;2023-02-11T04:33:30;32.43;;;18.60;;
15104;SDS011;7653;48.994;9.212;2023-02-11T04:35:56;31.43;;;18.63;;
15104;SDS011;7653;48.994;9.212;2023-02-11T04:38:21;33.30;;;18.73;;
15104;SDS011;7653;48.994;9.212;2023-02-11T04:40:50;33.77;;;18.33;;
15104;SDS011;7653;48.994;9.212;2023-02-11T04:43:15;34.03;;;18.80;;
15104;SDS011;7653;48.994;9.212;2023-02-11T04:45:41;34.60;;;19.13;;
15104;SDS011;7653;48.994;9.212;2023-02-11T04:48:07;32.60;;;18.70;;
15104;SDS011;7653;48.994;9.212;2023-02-11T04:50:32;31.97;;;18.87;;
15104;SDS011;7653;48.994;9.212;2023-02-11T04:52:58;35.87;;;18.87;;
15104;SDS011;7653;48.994;9.212;2023-02-11T04:55:23;32.13;;;18.77;;
15104;SDS011;7653;48.994;9.212;2023-02-11T04:57:49;30.70;;;17.70;;
15104;SDS011;7653;48.994;9.212;2023-02-11T05:00:15;30.23;;;18.67;;
15104;SDS011;7653;48.994;9.212;2023-02-11T05:02:41;32.40;;;19.17;;
15104;SDS011;7653;48.994;9.212;2023-02-11T05:05:07;32.67;;;18.60;;
15104;SDS011;7653;48.994;9.212;2023-02-11T05:07:32;34.60;;;20.23;;
15104;SDS011;7653;48.994;9.212;2023-02-11T05:09:58;40.83;;;21.70;;
15104;SDS011;7653;48.994;9.212;2023-02-11T05:12:23;32.90;;;19.07;;
15104;SDS011;7653;48.994;9.212;2023-02-11T05:14:49;33.03;;;19.03;;
15104;SDS011;7653;48.994;9.212;2023-02-11T05:17:15;32.47;;;19.67;;
15104;SDS011;7653;48.994;9.212;2023-02-11T05:19:41;32.50;;;19.03;;
15104;SDS011;7653;48.994;9.212;2023-02-11T05:22:06;31.83;;;18.77;;
15104;SDS011;7653;48.994;9.212;2023-02-11T05:24:32;35.63;;;20.37;;
15104;SDS011;7653;48.994;9.212;2023-02-11T05:26:59;33.37;;;18.97;;
15104;SDS011;7653;48.994;9.212;2023-02-11T05:29:25;33.83;;;19.43;;
15104;SDS011;7653;48.994;9.212;2023-02-11T05:31:51;34.77;;;19.60;;
15104;SDS011;7653;48.994;9.212;2023-02-11T05:34:17;36.90;;;19.97;;
15104;SDS011;7653;48.994;9.212;2023-02-11T05:36:42;31.33;;;19.13;;
15104;SDS011;7653;48.994;9.212;2023-02-11T05:39:08;32.07;;;18.67;;
15104;SDS011;7653;48.994;9.212;2023-02-11T05:41:34;37.10;;;20.30;;
15104;SDS011;7653;48.994;9.212;2023-02-11T05:43:59;31.67;;;18.50;;
15104;SDS011;7653;48.994;9.212;2023-02-11T05:46:25;35.67;;;19.50;;
15104;SDS011;7653;48.994;9.212;2023-02-11T05:48:51;32.10;;;19.20;;
15104;SDS011;7653;48.994;9.212;2023-02-11T05:51:16;32.47;;;18.90;;
15104;SDS011;7653;48.994;9.212;2023-02-11T05:53:42;31.73;;;19.33;;
15104;SDS011;7653;48.994;9.212;2023-02-11T05:56:08;30.40;;;18.60;;
15104;SDS011;7653;48.994;9.212;2023-02-11T05:58:34;35.13;;;18.77;;
15104;SDS011;7653;48.994;9.212;2023-02-11T06:01:00;30.30;;;18.40;;
15104;SDS011;7653;48.994;9.212;2023-02-11T06:03:25;33.87;;;18.43;;
15104;SDS011;7653;48.994;9.212;2023-02-11T06:05:51;30.07;;;18.37;;
15104;SDS011;7653;48.994;9.212;2023-02-11T06:08:17;33.53;;;19.17;;
15104;SDS011;7653;48.994;9.212;2023-02-11T06:10:45;31.37;;;18.30;;
15104;SDS011;7653;48.994;9.212;2023-02-11T06:13:11;30.20;;;18.27;;
15104;SDS011;7653;48.994;9.212;2023-02-11T06:15:37;32.60;;;18.90;;
15104;SDS011;7653;48.994;9.212;2023-02-11T06:18:03;30.20;;;17.57;;
15104;SDS011;7653;48.994;9.212;2023-02-11T06:20:29;33.17;;;18.93;;
15104;SDS011;7653;48.994;9.212;2023-02-11T06:22:55;29.63;;;18.70;;
15104;SDS011;7653;48.994;9.212;2023-02-11T06:25:20;31.93;;;17.83;;
15104;SDS011;7653;48.994;9.212;2023-02-11T06:27:46;33.57;;;19.03;;
15104;SDS011;7653;48.994;9.212;2023-02-11T06:30:12;33.23;;;18.20;;
15104;SDS011;7653;48.994;9.212;2023-02-11T06:32:38;33.83;;;18.37;;
15104;SDS011;7653;48.994;9.212;2023-02-11T06:35:03;29.67;;;18.17;;
15104;SDS011;7653;48.994;9.212;2023-02-11T06:37:29;30.57;;;18.37;;
15104;SDS011;7653;48.994;9.212;2023-02-11T06:39:55;30.17;;;18.10;;
15104;SDS011;7653;48.994;9.212;2023-02-11T06:42:20;28.77;;;17.53;;
15104;SDS011;7653;48.994;9.212;2023-02-11T06:44:46;32.60;;;18.70;;
15104;SDS011;7653;48.994;9.212;2023-02-11T06:47:11;30.87;;;18.13;;
15104;SDS011;7653;48.994;9.212;2023-02-11T06:49:37;31.37;;;18.57;;
15104;SDS011;7653;48.994;9.212;2023-02-11T06:52:03;28.60;;;18.37;;
15104;SDS011;7653;48.994;9.212;2023-02-11T06:54:29;33.80;;;19.47;;
15104;SDS011;7653;48.994;9.212;2023-02-11T06:56:54;31.63;;;18.43;;
15104;SDS011;7653;48.994;9.212;2023-02-11T06:59:20;34.40;;;18.77;;
15104;SDS011;7653;48.994;9.212;2023-02-11T07:01:46;31.13;;;18.87;;
15104;SDS011;7653;48.994;9.212;2023-02-11T07:04:12;31.90;;;19.47;;
15104;SDS011;7653;48.994;9.212;2023-02-11T07:06:39;30.10;;;18.17;;
15104;SDS011;7653;48.994;9.212;2023-02-11T07:09:05;27.70;;;17.60;;
15104;SDS011;7653;48.994;9.212;2023-02-11T07:11:32;33.43;;;18.53;;
15104;SDS011;7653;48.994;9.212;2023-02-11T07:14:02;31.43;;;18.00;;
15104;SDS011;7653;48.994;9.212;2023-02-11T07:16:30;29.07;;;17.93;;
15104;SDS011;7653;48.994;9.212;2023-02-11T07:18:56;32.40;;;18.77;;
15104;SDS011;7653;48.994;9.212;2023-02-11T07:21:22;30.83;;;18.57;;
15104;SDS011;7653;48.994;9.212;2023-02-11T07:23:50;35.00;;;19.03;;
15104;SDS011;7653;48.994;9.212;2023-02-11T07:26:18;29.93;;;17.93;;
15104;SDS011;7653;48.994;9.212;2023-02-11T07:28:47;30.43;;;18.70;;
15104;SDS011;7653;48.994;9.212;2023-02-11T07:31:15;31.30;;;18.77;;
15104;SDS011;7653;48.994;9.212;2023-02-11T07:33:43;30.93;;;17.97;;
15104;SDS011;7653;48.994;9.212;2023-02-11T07:36:12;31.67;;;19.03;;
15104;SDS011;7653;48.994;9.212;2023-02-11T07:38:40;31.00;;;19.17;;
15104;SDS011;7653;48.994;9.212;2023-02-11T07:41:06;32.70;;;19.20;;
15104;SDS011;7653;48.994;9.212;2023-02-11T07:43:34;27.63;;;17.80;;
15104;SDS011;7653;48.994;9.212;2023-02-11T07:46:05;27.43;;;17.70;;
15104;SDS011;7653;48.994;9.212;2023-02-11T07:48:32;30.53;;;17.40;;
15104;SDS011;7653;48.994;9.212;2023-02-11T07:53:58;32.67;;;18.10;;
15104;SDS011;7653;48.994;9.212;2023-02-11T07:56:25;30.27;;;18.20;;
15104;SDS011;7653;48.994;9.212;2023-02-11T07:58:51;29.87;;;18.60;;
15104;SDS011;7653;48.994;9.212;2023-02-11T08:01:19;28.97;;;18.13;;
15104;SDS011;7653;48.994;9.212;2023-02-11T08:03:48;30.87;;;18.00;;
15104;SDS011;7653;48.994;9.212;2023-02-11T08:06:15;29.90;;;17.80;;
15104;SDS011;7653;48.994;9.212;2023-02-11T08:08:42;30.40;;;18.30;;
15104;SDS011;7653;48.994;9.212;2023-02-11T08:11:16;31.47;;;18.13;;
15104;SDS011;7653;48.994;9.212;2023-02-11T08:13:42;28.47;;;18.57;;
15104;SDS011;7653;48.994;9.212;2023-02-11T08:16:08;29.03;;;18.03;;
15104;SDS011;7653;48.994;9.212;2023-02-11T08:18:40;29.33;;;17.67;;
15104;SDS011;7653;48.994;9.212;2023-02-11T08:21:06;29.70;;;18.43;;
15104;SDS011;7653;48.994;9.212;2023-02-11T08:23:37;29.57;;;18.37;;
15104;SDS011;7653;48.994;9.212;2023-02-11T08:26:04;28.43;;;18.43;;
15104;SDS011;7653;48.994;9.212;2023-02-11T08:28:34;31.70;;;19.47;;
15104;SDS011;7653;48.994;9.212;2023-02-11T08:31:08;31.03;;;18.47;;
15104;SDS011;7653;48.994;9.212;2023-02-11T08:33:40;30.93;;;19.00;;
15104;SDS011;7653;48.994;9.212;2023-02-11T08:36:09;29.50;;;17.73;;
15104;SDS011;7653;48.994;9.212;2023-02-11T08:38:37;29.73;;;17.87;;
15104;SDS011;7653;48.994;9.212;2023-02-11T08:41:03;28.70;;;18.53;;
15104;SDS011;7653;48.994;9.212;2023-02-11T08:43:29;26.87;;;18.00;;
15104;SDS011;7653;48.994;9.212;2023-02-11T08:45:56;30.73;;;18.00;;
15104;SDS011;7653;48.994;9.212;2023-02-11T08:48:22;28.70;;;18.90;;
15104;SDS011;7653;48.994;9.212;2023-02-11T08:50:48;30.73;;;19.03;;
15104;SDS011;7653;48.994;9.212;2023-02-11T08:53:13;26.67;;;17.17;;
15104;SDS011;7653;48.994;9.212;2023-02-11T08:55:39;29.40;;;17.73;;
15104;SDS011;7653;48.994;9.212;2023-02-11T08:58:04;29.30;;;18.00;;
15104;SDS011;7653;48.994;9.212;2023-02-11T09:00:30;28.60;;;17.90;;
15104;SDS011;7653;48.994;9.212;2023-02-11T09:02:56;28.23;;;18.03;;
15104;SDS011;7653;48.994;9.212;2023-02-11T09:05:21;31.13;;;18.13;;
15104;SDS011;7653;48.994;9.212;2023-02-11T09:07:47;26.60;;;17.37;;
15104;SDS011;7653;48.994;9.212;2023-02-11T09:10:13;30.97;;;17.77;;
15104;SDS011;7653;48.994;9.212;2023-02-11T09:12:38;32.40;;;18.37;;
15104;SDS011;7653;48.994;9.212;2023-02-11T09:15:04;27.43;;;17.67;;
15104;SDS011;7653;48.994;9.212;2023-02-11T09:17:30;30.10;;;17.40;;
15104;SDS011;7653;48.994;9.212;2023-02-11T09:19:56;29.73;;;18.27;;
15104;SDS011;7653;48.994;9.212;2023-02-11T09:22:21;26.07;;;17.00;;
15104;SDS011;7653;48.994;9.212;2023-02-11T09:24:47;27.87;;;17.93;;
15104;SDS011;7653;48.994;9.212;2023-02-11T09:27:13;26.87;;;17.33;;
15104;SDS011;7653;48.994;9.212;2023-02-11T09:29:38;30.43;;;17.50;;
15104;SDS011;7653;48.994;9.212;2023-02-11T09:32:04;27.47;;;17.23;;
15104;SDS011;7653;48.994;9.212;2023-02-11T09:34:29;28.80;;;17.90;;
15104;SDS011;7653;48.994;9.212;2023-02-11T09:36:55;28.43;;;16.87;;
15104;SDS011;7653;48.994;9.212;2023-02-11T09:39:21;27.73;;;17.10;;
15104;SDS011;7653;48.994;9.212;2023-02-11T09:44:25;25.37;;;16.07;;
15104;SDS011;7653;48.994;9.212;2023-02-11T09:46:54;25.47;;;15.67;;
15104;SDS011;7653;48.994;9.212;2023-02-11T09:49:24;27.47;;;17.20;;
15104;SDS011;7653;48.994;9.212;2023-02-11T09:51:57;24.90;;;16.50;;
15104;SDS011;7653;48.994;9.212;2023-02-11T09:54:43;25.30;;;16.23;;
15104;SDS011;7653;48.994;9.212;2023-02-11T09:57:09;25.57;;;16.80;;
15104;SDS011;7653;48.994;9.212;2023-02-11T09:59:35;24.47;;;16.13;;
15104;SDS011;7653;48.994;9.212;2023-02-11T10:02:03;25.43;;;16.60;;
15104;SDS011;7653;48.994;9.212;2023-02-11T10:07:24;23.17;;;14.40;;
15104;SDS011;7653;48.994;9.212;2023-02-11T10:10:03;23.97;;;14.17;;
15104;SDS011;7653;48.994;9.212;2023-02-11T10:21:03;21.17;;;13.40;;
15104;SDS011;7653;48.994;9.212;2023-02-11T10:23:38;20.17;;;13.10;;
15104;SDS011;7653;48.994;9.212;2023-02-11T10:26:11;20.80;;;12.97;;
15104;SDS011;7653;48.994;9.212;2023-02-11T10:28:38;23.10;;;13.67;;
15104;SDS011;7653;48.994;9.212;2023-02-11T10:31:08;19.40;;;13.63;;
15104;SDS011;7653;48.994;9.212;2023-02-11T10:36:16;22.13;;;13.40;;
15104;SDS011;7653;48.994;9.212;2023-02-11T10:38:43;20.23;;;13.77;;
15104;SDS011;7653;48.994;9.212;2023-02-11T10:41:10;21.47;;;14.90;;
15104;SDS011;7653;48.994;9.212;2023-02-11T10:43:41;18.83;;;13.23;;
15104;SDS011;7653;48.994;9.212;2023-02-11T10:46:14;18.33;;;11.93;;
15104;SDS011;7653;48.994;9.212;2023-02-11T10:48:50;18.63;;;12.03;;
15104;SDS011;7653;48.994;9.212;2023-02-11T10:53:43;18.33;;;12.23;;
15104;SDS011;7653;48.994;9.212;2023-02-11T10:56:11;20.57;;;11.70;;
15104;SDS011;7653;48.994;9.212;2023-02-11T10:58:57;15.77;;;10.90;;
15104;SDS011;7653;48.994;9.212;2023-02-11T11:01:35;15.47;;;10.40;;
15104;SDS011;7653;48.994;9.212;2023-02-11T11:04:05;15.17;;;9.33;;
15104;SDS011;7653;48.994;9.212;2023-02-11T11:07:11;13.37;;;9.50;;
15104;SDS011;7653;48.994;9.212;2023-02-11T11:09:50;6.27;;;4.20;;
15104;SDS011;7653;48.994;9.212;2023-02-11T11:18:32;14.37;;;8.80;;
15104;SDS011;7653;48.994;9.212;2023-02-11T11:21:02;11.20;;;7.40;;
15104;SDS011;7653;48.994;9.212;2023-02-11T11:23:36;10.83;;;7.43;;
15104;SDS011;7653;48.994;9.212;2023-02-11T11:28:38;19.37;;;9.67;;
15104;SDS011;7653;48.994;9.212;2023-02-11T11:33:40;8.80;;;4.77;;
15104;SDS011;7653;48.994;9.212;2023-02-11T11:36:09;12.53;;;8.03;;
15104;SDS011;7653;48.994;9.212;2023-02-11T11:38:42;11.50;;;7.47;;
15104;SDS011;7653;48.994;9.212;2023-02-11T11:41:12;12.30;;;7.53;;
15104;SDS011;7653;48.994;9.212;2023-02-11T11:49:00;11.17;;;7.93;;
15104;SDS011;7653;48.994;9.212;2023-02-11T11:51:37;8.57;;;5.53;;
15104;SDS011;7653;48.994;9.212;2023-02-11T11:54:11;9.23;;;6.20;;
15104;SDS011;7653;48.994;9.212;2023-02-11T11:57:01;14.20;;;8.93;;
15104;SDS011;7653;48.994;9.212;2023-02-11T11:59:29;11.93;;;7.53;;
15104;SDS011;7653;48.994;9.212;2023-02-11T12:07:43;4.87;;;3.23;;
15104;SDS011;7653;48.994;9.212;2023-02-11T12:24:04;12.57;;;6.53;;
15104;SDS011;7653;48.994;9.212;2023-02-11T12:34:16;12.17;;;6.77;;
15104;SDS011;7653;48.994;9.212;2023-02-11T12:37:03;16.00;;;10.50;;
15104;SDS011;7653;48.994;9.212;2023-02-11T12:39:49;16.83;;;10.13;;
15104;SDS011;7653;48.994;9.212;2023-02-11T12:42:17;14.60;;;9.33;;
15104;SDS011;7653;48.994;9.212;2023-02-11T12:50:38;15.53;;;11.17;;
15104;SDS011;7653;48.994;9.212;2023-02-11T12:55:42;16.40;;;10.47;;
15104;SDS011;7653;48.994;9.212;2023-02-11T12:58:14;14.67;;;8.97;;
15104;SDS011;7653;48.994;9.212;2023-02-11T13:00:47;17.63;;;10.50;;
15104;SDS011;7653;48.994;9.212;2023-02-11T13:03:21;16.77;;;10.30;;
15104;SDS011;7653;48.994;9.212;2023-02-11T13:05:51;18.60;;;9.67;;
15104;SDS011;7653;48.994;9.212;2023-02-11T13:10:47;22.47;;;8.27;;
15104;SDS011;7653;48.994;9.212;2023-02-11T13:13:22;14.47;;;9.03;;
15104;SDS011;7653;48.994;9.212;2023-02-11T13:15:58;13.63;;;9.07;;
15104;SDS011;7653;48.994;9.212;2023-02-11T13:26:38;14.80;;;9.17;;
15104;SDS011;7653;48.994;9.212;2023-02-11T13:32:10;14.93;;;9.87;;
15104;SDS011;7653;48.994;9.212;2023-02-11T13:37:22;14.23;;;9.80;;
15104;SDS011;7653;48.994;9.212;2023-02-11T13:42:24;12.17;;;8.00;;
15104;SDS011;7653;48.994;9.212;2023-02-11T13:44:51;12.83;;;8.50;;
15104;SDS011;7653;48.994;9.212;2023-02-11T13:49:54;16.40;;;10.77;;
15104;SDS011;7653;48.994;9.212;2023-02-11T13:54:59;15.63;;;11.40;;
15104;SDS011;7653;48.994;9.212;2023-02-11T13:58:34;14.87;;;10.57;;
15104;SDS011;7653;48.994;9.212;2023-02-11T14:09:09;16.03;;;9.73;;
15104;SDS011;7653;48.994;9.212;2023-02-11T14:12:18;13.77;;;10.00;;
15104;SDS011;7653;48.994;9.212;2023-02-11T14:15:24;18.30;;;11.37;;
15104;SDS011;7653;48.994;9.212;2023-02-11T14:17:44;11.30;;;7.07;;
15104;SDS011;7653;48.994;9.212;2023-02-11T14:20:52;15.73;;;11.67;;
15104;SDS011;7653;48.994;9.212;2023-02-11T14:23:00;18.53;;;10.17;;
15104;SDS011;7653;48.994;9.212;2023-02-11T14:25:28;16.33;;;11.60;;
15104;SDS011;7653;48.994;9.212;2023-02-11T14:27:55;13.57;;;10.50;;
15104;SDS011;7653;48.994;9.212;2023-02-11T14:43:50;12.17;;;8.40;;
15104;SDS011;7653;48.994;9.212;2023-02-11T14:46:19;15.77;;;11.47;;
15104;SDS011;7653;48.994;9.212;2023-02-11T14:48:51;16.20;;;11.07;;
15104;SDS011;7653;48.994;9.212;2023-02-11T14:53:51;16.40;;;11.67;;
15104;SDS011;7653;48.994;9.212;2023-02-11T14:56:22;11.67;;;8.63;;
15104;SDS011;7653;48.994;9.212;2023-02-11T14:58:55;16.80;;;10.43;;
15104;SDS011;7653;48.994;9.212;2023-02-11T15:01:32;19.97;;;10.57;;
15104;SDS011;7653;48.994;9.212;2023-02-11T15:04:04;20.47;;;12.93;;
15104;SDS011;7653;48.994;9.212;2023-02-11T15:06:46;14.83;;;9.70;;
15104;SDS011;7653;48.994;9.212;2023-02-11T15:11:42;14.37;;;9.90;;
15104;SDS011;7653;48.994;9.212;2023-02-11T15:14:18;15.27;;;10.30;;
15104;SDS011;7653;48.994;9.212;2023-02-11T15:16:51;19.07;;;13.43;;
15104;SDS011;7653;48.994;9.212;2023-02-11T15:19:22;17.67;;;13.27;;
15104;SDS011;7653;48.994;9.212;2023-02-11T15:22:15;18.87;;;13.97;;
15104;SDS011;7653;48.994;9.212;2023-02-11T15:24:42;19.27;;;12.17;;
15104;SDS011;7653;48.994;9.212;2023-02-11T15:29:44;9.33;;;5.90;;
15104;SDS011;7653;48.994;9.212;2023-02-11T15:34:44;16.80;;;13.20;;
15104;SDS011;7653;48.994;9.212;2023-02-11T15:37:27;19.73;;;12.97;;
15104;SDS011;7653;48.994;9.212;2023-02-11T15:39:54;17.23;;;12.27;;
15104;SDS011;7653;48.994;9.212;2023-02-11T15:42:31;20.37;;;12.40;;
15104;SDS011;7653;48.994;9.212;2023-02-11T15:47:38;20.57;;;10.90;;
15104;SDS011;7653;48.994;9.212;2023-02-11T15:50:06;21.27;;;12.77;;
15104;SDS011;7653;48.994;9.212;2023-02-11T15:52:43;19.20;;;13.73;;
15104;SDS011;7653;48.994;9.212;2023-02-11T15:55:12;17.80;;;12.57;;
15104;SDS011;7653;48.994;9.212;2023-02-11T15:57:48;20.57;;;11.80;;
15104;SDS011;7653;48.994;9.212;2023-02-11T16:00:20;18.63;;;12.57;;
15104;SDS011;7653;48.994;9.212;2023-02-11T16:02:48;19.30;;;13.77;;
15104;SDS011;7653;48.994;9.212;2023-02-11T16:07:57;21.20;;;13.10;;
15104;SDS011;7653;48.994;9.212;2023-02-11T16:15:27;20.17;;;13.47;;
15104;SDS011;7653;48.994;9.212;2023-02-11T16:17:53;19.70;;;14.07;;
15104;SDS011;7653;48.994;9.212;2023-02-11T16:20:19;15.83;;;11.77;;
15104;SDS011;7653;48.994;9.212;2023-02-11T16:22:45;20.97;;;13.73;;
15104;SDS011;7653;48.994;9.212;2023-02-11T16:25:18;24.20;;;15.27;;
15104;SDS011;7653;48.994;9.212;2023-02-11T16:27:50;23.97;;;16.70;;
15104;SDS011;7653;48.994;9.212;2023-02-11T16:30:36;21.90;;;15.80;;
15104;SDS011;7653;48.994;9.212;2023-02-11T16:33:02;23.90;;;16.73;;
15104;SDS011;7653;48.994;9.212;2023-02-11T16:35:29;22.23;;;15.83;;
15104;SDS011;7653;48.994;9.212;2023-02-11T16:37:55;25.47;;;15.57;;
15104;SDS011;7653;48.994;9.212;2023-02-11T16:40:20;25.67;;;17.33;;
15104;SDS011;7653;48.994;9.212;2023-02-11T16:42:49;24.83;;;18.40;;
15104;SDS011;7653;48.994;9.212;2023-02-11T16:45:17;23.57;;;16.93;;
15104;SDS011;7653;48.994;9.212;2023-02-11T16:47:46;24.17;;;16.27;;
15104;SDS011;7653;48.994;9.212;2023-02-11T16:50:17;24.63;;;16.60;;
15104;SDS011;7653;48.994;9.212;2023-02-11T16:52:46;21.17;;;15.90;;
15104;SDS011;7653;48.994;9.212;2023-02-11T16:55:12;22.13;;;16.03;;
15104;SDS011;7653;48.994;9.212;2023-02-11T16:57:38;21.80;;;15.27;;
15104;SDS011;7653;48.994;9.212;2023-02-11T17:00:04;19.93;;;14.43;;
15104;SDS011;7653;48.994;9.212;2023-02-11T17:02:35;23.97;;;15.53;;
15104;SDS011;7653;48.994;9.212;2023-02-11T17:05:05;20.57;;;14.90;;
15104;SDS011;7653;48.994;9.212;2023-02-11T17:07:39;20.87;;;14.53;;
15104;SDS011;7653;48.994;9.212;2023-02-11T17:10:12;23.17;;;16.93;;
15104;SDS011;7653;48.994;9.212;2023-02-11T17:12:39;27.00;;;19.07;;
15104;SDS011;7653;48.994;9.212;2023-02-11T17:15:04;34.50;;;22.57;;
15104;SDS011;7653;48.994;9.212;2023-02-11T17:17:30;32.97;;;21.83;;
15104;SDS011;7653;48.994;9.212;2023-02-11T17:19:56;27.47;;;18.63;;
15104;SDS011;7653;48.994;9.212;2023-02-11T17:22:21;32.60;;;19.97;;
15104;SDS011;7653;48.994;9.212;2023-02-11T17:24:47;37.07;;;25.30;;
15104;SDS011;7653;48.994;9.212;2023-02-11T17:27:13;33.07;;;22.37;;
15104;SDS011;7653;48.994;9.212;2023-02-11T17:29:39;29.57;;;19.10;;
15104;SDS011;7653;48.994;9.212;2023-02-11T17:32:05;31.13;;;19.80;;
15104;SDS011;7653;48.994;9.212;2023-02-11T17:34:30;31.97;;;22.10;;
15104;SDS011;7653;48.994;9.212;2023-02-11T17:36:56;26.73;;;18.90;;
15104;SDS011;7653;48.994;9.212;2023-02-11T17:39:24;26.53;;;17.73;;
15104;SDS011;7653;48.994;9.212;2023-02-11T17:41:50;29.50;;;19.90;;
15104;SDS011;7653;48.994;9.212;2023-02-11T17:44:15;30.80;;;20.20;;
15104;SDS011;7653;48.994;9.212;2023-02-11T17:46:41;30.17;;;20.77;;
15104;SDS011;7653;48.994;9.212;2023-02-11T17:49:08;34.73;;;25.07;;
15104;SDS011;7653;48.994;9.212;2023-02-11T17:51:36;30.80;;;22.33;;
15104;SDS011;7653;48.994;9.212;2023-02-11T17:54:07;30.03;;;21.97;;
15104;SDS011;7653;48.994;9.212;2023-02-11T17:56:36;33.00;;;22.73;;
15104;SDS011;7653;48.994;9.212;2023-02-11T17:59:02;32.27;;;22.60;;
15104;SDS011;7653;48.994;9.212;2023-02-11T18:01:29;29.17;;;22.27;;
15104;SDS011;7653;48.994;9.212;2023-02-11T18:03:56;33.33;;;23.07;;
15104;SDS011;7653;48.994;9.212;2023-02-11T18:06:23;31.20;;;21.87;;
15104;SDS011;7653;48.994;9.212;2023-02-11T18:08:49;39.03;;;23.93;;